Time;durP1;ratioP1;P1;durP2;ratioP2;P2;SDS_P1;SDS_P2;PMS_P1;PMS_P2;Temp;Humidity;BMP_temperature;BMP_pressure;BME280_temperature;BME280_humidity;BME280_pressure;Samples;Min_cycle;Max_cycle;Signal;HPM_P1;HPM_P2
2023/09/02 00:02:18;;;;;;;36.92;17.20;;;17.20;99.90;;;;;;5022460;28;20400;-63
2023/09/02 00:04:43;;;;;;;35.45;16.20;;;17.20;99.90;;;;;;5022028;28;20045;-63
2023/09/02 00:07:09;;;;;;;29.45;13.60;;;17.20;99.90;;;;;;5014061;28;20038;-63
2023/09/02 00:09:35;;;;;;;26.73;12.57;;;17.20;99.90;;;;;;5022443;28;20338;-63
2023/09/02 00:12:00;;;;;;;20.15;11.55;;;17.20;99.90;;;;;;5018903;28;20140;-62
2023/09/02 00:14:26;;;;;;;17.70;11.40;;;17.30;99.90;;;;;;5022730;28;20037;-63
2023/09/02 00:16:51;;;;;;;17.55;10.32;;;17.30;99.90;;;;;;4999754;28;20516;-63
2023/09/02 00:19:17;;;;;;;21.58;11.25;;;17.20;99.90;;;;;;5017007;28;20401;-63
2023/09/02 00:21:42;;;;;;;19.33;10.73;;;17.40;99.90;;;;;;5018425;28;20033;-63
2023/09/02 00:24:08;;;;;;;21.13;10.68;;;17.40;99.90;;;;;;5004143;28;20364;-63
2023/09/02 00:26:34;;;;;;;20.30;10.82;;;17.30;99.90;;;;;;5014408;28;20026;-63
2023/09/02 00:29:00;;;;;;;20.25;10.93;;;17.40;99.90;;;;;;5014753;28;20148;-63
2023/09/02 00:31:27;;;;;;;20.08;12.05;;;17.40;99.90;;;;;;5016726;28;20113;-63
2023/09/02 00:33:53;;;;;;;21.35;12.13;;;17.30;99.90;;;;;;5019397;28;20049;-60
2023/09/02 00:36:19;;;;;;;18.75;11.57;;;17.40;99.90;;;;;;5020877;28;20043;-60
2023/09/02 00:38:44;;;;;;;19.02;11.57;;;17.40;99.90;;;;;;5020585;28;20132;-61
2023/09/02 00:41:18;;;;;;;20.27;11.88;;;17.30;99.90;;;;;;5012810;28;20125;-60
2023/09/02 00:43:43;;;;;;;;;;;17.10;99.90;;;;;;5022032;28;20116;-63
2023/09/02 00:46:09;;;;;;;18.95;11.60;;;17.20;99.90;;;;;;5018603;28;19996;-63
2023/09/02 00:48:36;;;;;;;22.40;11.98;;;17.20;99.90;;;;;;4991525;28;20033;-62
2023/09/02 00:51:01;;;;;;;19.35;11.60;;;17.10;99.90;;;;;;5019745;28;20446;-63
2023/09/02 00:53:28;;;;;;;22.55;12.40;;;17.10;99.90;;;;;;5014263;28;20026;-63
2023/09/02 00:55:53;;;;;;;18.67;11.75;;;17.00;99.90;;;;;;5016334;28;20026;-63
2023/09/02 00:58:19;;;;;;;21.73;12.73;;;17.00;99.90;;;;;;5014362;28;20092;-63
2023/09/02 01:00:46;;;;;;;19.33;12.13;;;17.10;99.90;;;;;;5017048;28;20059;-64
2023/09/02 01:03:13;;;;;;;20.08;12.00;;;17.10;99.90;;;;;;5002158;28;20442;-63
2023/09/02 01:05:38;;;;;;;16.67;11.18;;;17.20;99.90;;;;;;5011843;28;20037;-63
2023/09/02 01:08:05;;;;;;;18.45;12.75;;;17.20;99.90;;;;;;5011308;28;20050;-63
2023/09/02 01:10:35;;;;;;;19.50;11.90;;;17.30;99.90;;;;;;5016512;28;20452;-63
2023/09/02 01:13:02;;;;;;;17.85;11.82;;;17.20;99.90;;;;;;5004587;28;20769;-63
2023/09/02 01:15:28;;;;;;;22.00;11.32;;;17.20;99.90;;;;;;5008482;28;20108;-63
2023/09/02 01:17:53;;;;;;;19.52;12.10;;;17.10;99.90;;;;;;5018315;28;20197;-63
2023/09/02 01:20:22;;;;;;;23.30;11.70;;;17.10;99.90;;;;;;5019002;28;20504;-63
2023/09/02 01:23:10;;;;;;;16.75;11.13;;;17.00;99.90;;;;;;5003712;28;20037;-63
2023/09/02 01:26:05;;;;;;;23.85;12.00;;;17.00;99.90;;;;;;5010806;28;20084;-63
2023/09/02 01:28:34;;;;;;;18.40;11.15;;;17.00;99.90;;;;;;5020045;28;20080;-63
2023/09/02 01:31:03;;;;;;;18.38;11.40;;;17.00;99.90;;;;;;5019775;28;20045;-63
2023/09/02 01:33:29;;;;;;;21.38;10.82;;;17.00;99.90;;;;;;5021873;28;20030;-63
2023/09/02 01:35:58;;;;;;;16.15;10.90;;;16.90;99.90;;;;;;5024520;28;20393;-63
2023/09/02 01:38:27;;;;;;;19.42;11.43;;;16.90;99.90;;;;;;5020845;28;20485;-63
2023/09/02 01:40:54;;;;;;;20.42;10.80;;;16.80;99.90;;;;;;5018222;28;20489;-63
2023/09/02 01:43:23;;;;;;;18.67;9.95;;;16.70;99.90;;;;;;5016570;28;20037;-63
2023/09/02 01:45:51;;;;;;;15.80;9.95;;;16.60;99.90;;;;;;5026120;28;20087;-63
2023/09/02 01:48:18;;;;;;;18.48;10.07;;;16.60;99.90;;;;;;5020739;28;20037;-63
2023/09/02 01:50:45;;;;;;;20.73;10.32;;;16.60;99.90;;;;;;5017725;28;20045;-64
2023/09/02 01:53:10;;;;;;;18.98;10.30;;;16.50;99.90;;;;;;5017979;28;20060;-63
2023/09/02 01:55:36;;;;;;;19.45;10.65;;;16.50;99.90;;;;;;5023452;28;20454;-62
2023/09/02 01:58:02;;;;;;;18.75;10.23;;;16.60;99.90;;;;;;5002668;28;20091;-62
2023/09/02 02:00:28;;;;;;;16.40;9.60;;;16.60;99.90;;;;;;5024364;28;20048;-60
2023/09/02 02:02:54;;;;;;;21.13;10.60;;;16.60;99.90;;;;;;5024310;28;20030;-61
2023/09/02 02:05:24;;;;;;;15.43;9.65;;;16.70;99.90;;;;;;5010328;28;20132;-61
2023/09/02 02:08:01;;;;;;;21.15;10.32;;;16.80;99.90;;;;;;5015109;28;20575;-60
2023/09/02 02:10:31;;;;;;;21.05;11.05;;;16.80;99.90;;;;;;5018451;28;20057;-61
2023/09/02 02:13:01;;;;;;;16.60;10.10;;;16.70;99.90;;;;;;5018379;28;20038;-61
2023/09/02 02:15:27;;;;;;;18.58;9.85;;;16.80;99.90;;;;;;5019305;28;20037;-60
2023/09/02 02:17:52;;;;;;;15.95;9.98;;;16.70;99.90;;;;;;5022692;28;20041;-61
2023/09/02 02:20:19;;;;;;;17.35;10.50;;;16.60;99.90;;;;;;5023207;28;20061;-60
2023/09/02 02:22:44;;;;;;;17.58;10.35;;;16.70;99.90;;;;;;5024543;28;20034;-59
2023/09/02 02:25:10;;;;;;;17.08;10.80;;;16.80;99.90;;;;;;5004896;28;20152;-60
2023/09/02 02:27:35;;;;;;;20.73;10.82;;;16.80;99.90;;;;;;5021163;28;20068;-61
2023/09/02 02:30:03;;;;;;;18.52;10.05;;;16.80;99.90;;;;;;4995038;28;20096;-61
2023/09/02 02:32:29;;;;;;;15.73;10.90;;;16.60;99.90;;;;;;5015848;28;20033;-61
2023/09/02 02:34:54;;;;;;;19.02;10.38;;;16.50;99.90;;;;;;5015943;28;20462;-60
2023/09/02 02:37:20;;;;;;;14.82;10.75;;;16.50;99.90;;;;;;5021484;28;20030;-60
2023/09/02 02:39:46;;;;;;;15.30;10.10;;;16.50;99.90;;;;;;5017660;28;20092;-59
2023/09/02 02:42:14;;;;;;;14.80;10.15;;;16.50;99.90;;;;;;5016436;28;20029;-60
2023/09/02 02:44:40;;;;;;;19.75;11.38;;;16.50;99.90;;;;;;5019366;28;20030;-60
2023/09/02 02:47:06;;;;;;;21.05;11.73;;;16.50;99.90;;;;;;5019500;28;20516;-61
2023/09/02 02:49:31;;;;;;;22.35;12.18;;;16.50;99.90;;;;;;5018167;28;20041;-60
2023/09/02 02:51:57;;;;;;;19.92;13.27;;;16.60;99.90;;;;;;5020966;28;20052;-60
2023/09/02 02:54:22;;;;;;;21.58;12.57;;;16.70;99.90;;;;;;5023076;28;20064;-61
2023/09/02 02:56:48;;;;;;;17.83;12.48;;;16.70;99.90;;;;;;5016128;28;20120;-62
2023/09/02 02:59:13;;;;;;;22.17;12.82;;;16.70;99.90;;;;;;5017039;28;20330;-60
2023/09/02 03:01:39;;;;;;;20.63;13.15;;;16.60;99.90;;;;;;5021827;28;20095;-60
2023/09/02 03:04:05;;;;;;;21.40;13.77;;;16.70;99.90;;;;;;5009394;28;20107;-60
2023/09/02 03:06:31;;;;;;;21.33;14.23;;;16.70;99.90;;;;;;5020753;28;20042;-61
2023/09/02 03:08:56;;;;;;;18.52;13.15;;;16.60;99.90;;;;;;5019534;28;20088;-61
2023/09/02 03:11:22;;;;;;;20.40;12.75;;;16.50;99.90;;;;;;5019008;28;20090;-61
2023/09/02 03:13:47;;;;;;;19.65;13.35;;;16.50;99.90;;;;;;5013830;28;20076;-61
2023/09/02 03:16:13;;;;;;;19.40;13.25;;;16.50;99.90;;;;;;5003822;28;20065;-60
2023/09/02 03:18:40;;;;;;;19.33;13.30;;;16.40;99.90;;;;;;5021978;28;20036;-60
2023/09/02 03:21:07;;;;;;;16.65;12.52;;;16.40;99.90;;;;;;5012444;28;20026;-60
2023/09/02 03:23:34;;;;;;;18.00;12.98;;;16.30;99.90;;;;;;5023142;28;20443;-60
2023/09/02 03:26:10;;;;;;;19.50;12.98;;;16.30;99.90;;;;;;5019560;28;20164;-63
2023/09/02 03:28:35;;;;;;;18.75;12.93;;;16.30;99.90;;;;;;5023059;28;20050;-63
2023/09/02 03:31:08;;;;;;;23.95;14.18;;;16.40;99.90;;;;;;5016671;28;20757;-63
2023/09/02 03:33:33;;;;;;;19.03;13.23;;;16.30;99.90;;;;;;5013578;28;20489;-63
2023/09/02 03:36:02;;;;;;;20.83;13.90;;;16.20;99.90;;;;;;5000756;28;20133;-63
2023/09/02 03:38:28;;;;;;;17.88;12.82;;;16.30;99.90;;;;;;5012363;28;20453;-63
2023/09/02 03:40:54;;;;;;;22.05;13.10;;;16.30;99.90;;;;;;5024750;28;20029;-63
2023/09/02 03:43:19;;;;;;;17.52;12.65;;;16.30;99.90;;;;;;5019108;28;20080;-63
2023/09/02 03:45:48;;;;;;;23.25;12.98;;;16.20;99.90;;;;;;5014812;28;20119;-63
2023/09/02 03:48:17;;;;;;;18.70;13.07;;;16.30;99.90;;;;;;5014062;28;20493;-63
2023/09/02 03:51:19;;;;;;;19.42;12.90;;;16.40;99.90;;;;;;5021629;28;20483;-63
2023/09/02 03:53:44;;;;;;;19.63;12.65;;;16.40;99.90;;;;;;4923627;29;20042;-63
2023/09/02 03:56:10;;;;;;;17.45;12.90;;;16.30;99.90;;;;;;4994216;28;20025;-63
2023/09/02 03:58:36;;;;;;;19.80;12.98;;;16.40;99.90;;;;;;5022283;28;20034;-63
2023/09/02 04:01:03;;;;;;;19.48;12.02;;;16.40;99.90;;;;;;5018923;28;20053;-62
2023/09/02 04:03:30;;;;;;;18.90;12.07;;;16.40;99.90;;;;;;5016387;28;20631;-63
2023/09/02 04:05:56;;;;;;;18.10;12.05;;;16.30;99.90;;;;;;5022863;28;20103;-63
2023/09/02 04:08:23;;;;;;;22.95;12.30;;;16.30;99.90;;;;;;5021705;28;20049;-63
2023/09/02 04:10:55;;;;;;;19.38;13.10;;;16.40;99.90;;;;;;5020883;28;20042;-63
2023/09/02 04:13:26;;;;;;;17.27;11.93;;;16.50;99.90;;;;;;4994315;28;20042;-62
2023/09/02 04:16:00;;;;;;;17.90;11.90;;;16.40;99.90;;;;;;5023435;28;20276;-63
2023/09/02 04:18:26;;;;;;;19.05;12.20;;;16.40;99.90;;;;;;5011292;28;20380;-63
2023/09/02 04:20:52;;;;;;;22.80;12.00;;;16.30;99.90;;;;;;5015516;28;20026;-63
2023/09/02 04:23:21;;;;;;;20.65;12.65;;;16.30;99.90;;;;;;5019180;28;20037;-63
2023/09/02 04:25:49;;;;;;;18.20;12.10;;;16.50;99.90;;;;;;5018597;28;20045;-64
2023/09/02 04:28:15;;;;;;;17.55;11.68;;;16.30;99.90;;;;;;5011270;28;20104;-63
2023/09/02 04:30:42;;;;;;;20.90;12.95;;;16.20;99.90;;;;;;5017230;28;20125;-64
2023/09/02 04:33:11;;;;;;;18.10;12.02;;;16.20;99.90;;;;;;5003442;28;20033;-64
2023/09/02 04:35:39;;;;;;;17.90;11.38;;;16.20;99.90;;;;;;5016632;28;20129;-63
2023/09/02 04:38:05;;;;;;;19.38;12.02;;;16.10;99.90;;;;;;5009974;28;20470;-62
2023/09/02 04:40:40;;;;;;;24.15;11.98;;;16.10;99.90;;;;;;5016777;28;20436;-63
2023/09/02 04:43:07;;;;;;;17.88;11.50;;;16.10;99.90;;;;;;5009943;28;20105;-63
2023/09/02 04:45:37;;;;;;;21.88;12.73;;;16.00;99.90;;;;;;5019126;28;20583;-61
2023/09/02 04:48:04;;;;;;;18.13;13.00;;;16.00;99.90;;;;;;5014551;28;20037;-61
2023/09/02 04:50:30;;;;;;;20.23;13.07;;;16.00;99.90;;;;;;5017537;28;20084;-60
2023/09/02 04:52:57;;;;;;;22.52;13.35;;;16.00;99.90;;;;;;5018066;28;20421;-61
2023/09/02 04:55:24;;;;;;;20.83;13.85;;;16.00;99.90;;;;;;5017416;28;20504;-60
2023/09/02 04:57:51;;;;;;;21.65;13.77;;;16.10;99.90;;;;;;5016122;28;20041;-60
2023/09/02 05:00:17;;;;;;;22.05;14.07;;;16.10;99.90;;;;;;5010805;28;20037;-60
2023/09/02 05:02:44;;;;;;;20.52;13.93;;;16.10;99.90;;;;;;5018123;28;20510;-60
2023/09/02 05:05:10;;;;;;;21.80;13.77;;;16.10;99.90;;;;;;5015860;28;20055;-61
2023/09/02 05:07:36;;;;;;;24.80;14.57;;;16.20;99.90;;;;;;5011010;28;20076;-61
2023/09/02 05:10:02;;;;;;;23.10;14.30;;;16.20;99.90;;;;;;5015957;28;20040;-61
2023/09/02 05:12:27;;;;;;;20.58;14.95;;;16.30;99.90;;;;;;5022006;28;20041;-60
2023/09/02 05:14:53;;;;;;;24.10;15.43;;;16.30;99.90;;;;;;5025347;28;20786;-61
2023/09/02 05:17:19;;;;;;;26.08;14.45;;;16.30;99.90;;;;;;5023402;28;20044;-62
2023/09/02 05:19:44;;;;;;;22.83;14.23;;;16.30;99.90;;;;;;5029067;28;20124;-61
2023/09/02 05:22:10;;;;;;;28.80;14.77;;;16.40;99.90;;;;;;5019957;28;20492;-59
2023/09/02 05:24:35;;;;;;;23.98;14.20;;;16.40;99.90;;;;;;5019229;28;20088;-60
2023/09/02 05:27:01;;;;;;;27.77;14.73;;;16.40;99.90;;;;;;5018678;28;20311;-61
2023/09/02 05:29:27;;;;;;;22.40;14.52;;;16.50;99.90;;;;;;5024305;28;20069;-61
2023/09/02 05:31:52;;;;;;;22.35;14.30;;;16.50;99.90;;;;;;5017724;28;20028;-61
2023/09/02 05:34:18;;;;;;;24.42;13.88;;;16.50;99.90;;;;;;5018257;28;20072;-60
2023/09/02 05:36:44;;;;;;;27.10;14.88;;;16.40;99.90;;;;;;5029490;28;20060;-61
2023/09/02 05:39:10;;;;;;;21.20;13.55;;;16.50;99.90;;;;;;5019118;28;20580;-61
2023/09/02 05:41:36;;;;;;;22.98;13.38;;;16.50;99.90;;;;;;5024614;28;20035;-61
2023/09/02 05:44:01;;;;;;;20.65;13.05;;;16.60;99.90;;;;;;5014985;28;20126;-63
2023/09/02 05:46:27;;;;;;;23.00;13.80;;;16.80;99.90;;;;;;5020825;28;20033;-64
2023/09/02 05:48:52;;;;;;;20.23;13.98;;;16.80;99.90;;;;;;5021072;28;20033;-63
2023/09/02 05:51:18;;;;;;;25.42;13.15;;;16.80;99.90;;;;;;5022199;28;20030;-63
2023/09/02 05:53:46;;;;;;;23.75;13.05;;;16.80;99.90;;;;;;5020831;28;20092;-63
2023/09/02 05:56:12;;;;;;;21.63;13.35;;;16.80;99.90;;;;;;5019976;28;20164;-60
2023/09/02 05:58:37;;;;;;;25.27;12.80;;;16.70;99.90;;;;;;5013820;28;20081;-61
2023/09/02 06:01:04;;;;;;;21.60;12.77;;;16.80;99.90;;;;;;5026337;28;20033;-61
2023/09/02 06:03:29;;;;;;;20.55;12.75;;;16.70;99.90;;;;;;5025629;28;20030;-58
2023/09/02 06:05:55;;;;;;;22.98;13.07;;;16.70;99.90;;;;;;5019669;28;20462;-59
2023/09/02 06:08:21;;;;;;;21.33;13.75;;;16.70;99.90;;;;;;5020395;28;20111;-60
2023/09/02 06:10:59;;;;;;;22.35;13.15;;;16.80;99.90;;;;;;5027362;28;20061;-59
2023/09/02 06:13:25;;;;;;;21.77;12.65;;;17.00;99.90;;;;;;5024461;28;20141;-60
2023/09/02 06:15:51;;;;;;;20.70;13.32;;;17.10;99.90;;;;;;5000348;28;20049;-58
2023/09/02 06:18:17;;;;;;;21.90;13.98;;;17.00;99.90;;;;;;5018362;28;20072;-59
2023/09/02 06:20:42;;;;;;;28.65;14.55;;;17.00;99.90;;;;;;5020471;28;20068;-59
2023/09/02 06:23:08;;;;;;;21.05;13.13;;;17.10;99.90;;;;;;5017847;28;20052;-60
2023/09/02 06:25:33;;;;;;;24.23;13.57;;;17.20;99.90;;;;;;5016303;28;20133;-58
2023/09/02 06:27:59;;;;;;;24.55;13.15;;;17.10;99.90;;;;;;4998088;28;20184;-59
2023/09/02 06:30:25;;;;;;;18.40;11.95;;;17.20;99.90;;;;;;5017103;28;20041;-60
2023/09/02 06:32:51;;;;;;;20.83;13.82;;;17.20;99.90;;;;;;5017104;28;20091;-57
2023/09/02 06:35:16;;;;;;;22.38;12.98;;;17.30;99.90;;;;;;5015637;28;20063;-59
2023/09/02 06:37:42;;;;;;;19.50;12.45;;;17.30;99.90;;;;;;5018986;28;20117;-60
2023/09/02 06:40:08;;;;;;;17.88;11.93;;;17.30;99.90;;;;;;5013534;28;20073;-59
2023/09/02 06:42:33;;;;;;;21.95;12.75;;;17.40;99.90;;;;;;5019200;28;20041;-59
2023/09/02 06:45:00;;;;;;;27.17;13.18;;;17.40;99.90;;;;;;5012802;28;20097;-58
2023/09/02 06:47:25;;;;;;;21.77;12.70;;;17.50;99.90;;;;;;5017982;28;20049;-58
2023/09/02 06:49:51;;;;;;;42.58;15.90;;;17.60;99.90;;;;;;5019187;28;20049;-59
2023/09/02 06:52:16;;;;;;;21.25;12.27;;;17.60;99.90;;;;;;5018327;28;20045;-59
2023/09/02 06:54:42;;;;;;;20.95;11.80;;;17.60;99.90;;;;;;5021883;28;20056;-58
2023/09/02 06:57:08;;;;;;;18.08;11.20;;;17.70;99.90;;;;;;5022858;28;20382;-58
2023/09/02 06:59:34;;;;;;;15.57;10.45;;;17.80;99.90;;;;;;5013848;28;20046;-58
2023/09/02 07:01:59;;;;;;;15.73;10.45;;;17.80;99.90;;;;;;5006629;28;20382;-58
2023/09/02 07:04:25;;;;;;;16.55;10.10;;;17.80;99.90;;;;;;5000445;28;20041;-58
2023/09/02 07:06:51;;;;;;;19.65;10.13;;;17.80;99.90;;;;;;5014595;28;20038;-59
2023/09/02 07:09:17;;;;;;;16.20;9.50;;;17.80;99.90;;;;;;5021773;28;20116;-57
2023/09/02 07:11:42;;;;;;;15.07;9.65;;;17.80;99.90;;;;;;5013448;28;20113;-58
2023/09/02 07:14:08;;;;;;;12.48;8.98;;;17.90;99.90;;;;;;5020837;28;20454;-58
2023/09/02 07:16:34;;;;;;;15.52;8.98;;;18.00;99.90;;;;;;5019612;28;20037;-58
2023/09/02 07:19:02;;;;;;;15.10;9.38;;;18.10;99.90;;;;;;5024335;28;20044;-58
2023/09/02 07:21:28;;;;;;;13.00;8.18;;;18.00;99.90;;;;;;5014143;28;20113;-58
2023/09/02 07:23:54;;;;;;;19.50;9.95;;;17.90;99.90;;;;;;5011255;28;20026;-58
2023/09/02 07:26:20;;;;;;;14.82;8.63;;;17.90;99.90;;;;;;5014232;28;20045;-58
2023/09/02 07:28:45;;;;;;;15.18;8.63;;;17.90;99.90;;;;;;5024890;28;20090;-57
2023/09/02 07:31:12;;;;;;;14.70;9.30;;;17.90;99.90;;;;;;5020302;28;20029;-58
2023/09/02 07:33:37;;;;;;;13.88;9.13;;;18.00;99.90;;;;;;5012493;28;20149;-58
2023/09/02 07:36:07;;;;;;;17.10;9.75;;;18.20;99.90;;;;;;5012587;28;20116;-58
2023/09/02 07:38:33;;;;;;;15.40;8.50;;;18.30;99.90;;;;;;5019651;28;20151;-59
2023/09/02 07:40:58;;;;;;;17.15;9.43;;;18.40;99.90;;;;;;5016937;28;20116;-58
2023/09/02 07:43:24;;;;;;;19.02;9.05;;;18.40;99.90;;;;;;5017088;28;20137;-58
2023/09/02 07:45:50;;;;;;;13.68;7.82;;;18.50;99.90;;;;;;5024266;28;20373;-58
2023/09/02 07:48:16;;;;;;;17.58;8.68;;;18.30;99.90;;;;;;5021772;28;20459;-58
2023/09/02 07:50:42;;;;;;;14.07;8.63;;;18.30;99.90;;;;;;5020410;28;20052;-58
2023/09/02 07:53:07;;;;;;;20.73;8.88;;;18.40;99.90;;;;;;5021552;28;20040;-58
2023/09/02 07:55:33;;;;;;;16.55;9.57;;;18.50;99.90;;;;;;5012777;28;20037;-58
2023/09/02 07:58:00;;;;;;;16.95;9.25;;;18.60;99.90;;;;;;5018086;28;20121;-57
2023/09/02 08:00:27;;;;;;;13.27;8.52;;;18.60;99.90;;;;;;5019761;28;20423;-58
2023/09/02 08:02:52;;;;;;;16.15;8.85;;;18.40;99.90;;;;;;5020876;28;20619;-58
2023/09/02 08:05:18;;;;;;;17.15;8.63;;;18.60;99.90;;;;;;5016150;28;20025;-58
2023/09/02 08:07:44;;;;;;;16.08;9.95;;;18.80;99.90;;;;;;5009935;28;20680;-57
2023/09/02 08:10:10;;;;;;;16.00;8.70;;;18.80;99.90;;;;;;4998433;28;20060;-57
2023/09/02 08:12:36;;;;;;;20.75;9.02;;;18.90;99.90;;;;;;5020072;28;20052;-57
2023/09/02 08:15:02;;;;;;;14.93;9.10;;;19.00;99.90;;;;;;5014086;28;20038;-57
2023/09/02 08:17:27;;;;;;;17.10;9.00;;;19.10;99.90;;;;;;5018726;28;20144;-56
2023/09/02 08:19:53;;;;;;;16.92;8.95;;;19.20;99.90;;;;;;5023072;28;20049;-58
2023/09/02 08:22:19;;;;;;;15.48;9.07;;;19.10;99.90;;;;;;5020993;28;20033;-58
2023/09/02 08:24:44;;;;;;;21.13;8.85;;;19.20;99.90;;;;;;5016693;28;20982;-58
2023/09/02 08:27:10;;;;;;;14.77;8.63;;;19.30;99.90;;;;;;5003020;28;20064;-57
2023/09/02 08:29:35;;;;;;;16.35;9.80;;;19.40;99.90;;;;;;5019216;28;20612;-57
2023/09/02 08:32:01;;;;;;;18.25;8.40;;;19.40;99.90;;;;;;5020724;28;20446;-58
2023/09/02 08:34:29;;;;;;;13.88;8.60;;;19.50;99.90;;;;;;5020428;28;20029;-56
2023/09/02 08:36:55;;;;;;;17.50;9.35;;;19.50;99.90;;;;;;5018503;28;20038;-56
2023/09/02 08:39:20;;;;;;;11.88;7.40;;;19.60;99.90;;;;;;5021778;28;20035;-57
2023/09/02 08:41:48;;;;;;;13.35;7.22;;;19.50;99.90;;;;;;5023314;28;20434;-55
2023/09/02 08:44:16;;;;;;;12.93;7.72;;;19.60;99.90;;;;;;5018963;28;20535;-57
2023/09/02 08:46:45;;;;;;;12.93;7.75;;;19.80;99.90;;;;;;5022429;28;20305;-57
2023/09/02 08:49:11;;;;;;;13.43;6.93;;;19.80;99.90;;;;;;5020755;28;20083;-57
2023/09/02 08:51:37;;;;;;;13.15;7.60;;;19.80;99.90;;;;;;5022607;28;20041;-57
2023/09/02 08:54:04;;;;;;;14.45;8.45;;;19.80;99.90;;;;;;5021479;28;20124;-56
2023/09/02 08:56:29;;;;;;;19.48;8.07;;;20.00;99.90;;;;;;5022848;28;20482;-57
2023/09/02 08:58:55;;;;;;;15.45;7.53;;;20.10;99.90;;;;;;5021336;28;20128;-57
2023/09/02 09:01:23;;;;;;;10.48;6.10;;;20.10;99.90;;;;;;5024512;28;20128;-57
2023/09/02 09:03:53;;;;;;;10.02;5.95;;;20.00;99.90;;;;;;5022286;28;20088;-55
2023/09/02 09:06:22;;;;;;;13.15;6.45;;;20.00;99.90;;;;;;5014414;28;20117;-57
2023/09/02 09:08:49;;;;;;;10.68;5.82;;;20.10;99.90;;;;;;5016822;28;20125;-56
2023/09/02 09:11:20;;;;;;;11.20;6.78;;;20.10;99.90;;;;;;5017724;28;20223;-56
2023/09/02 09:13:49;;;;;;;13.57;7.03;;;20.40;99.90;;;;;;5021052;28;20078;-57
2023/09/02 09:16:24;;;;;;;13.05;7.00;;;20.50;99.90;;;;;;5021256;28;20056;-57
2023/09/02 09:18:50;;;;;;;12.10;7.25;;;20.60;99.90;;;;;;5022243;28;20033;-57
2023/09/02 09:21:16;;;;;;;16.60;6.90;;;20.50;99.90;;;;;;5020510;28;20041;-56
2023/09/02 09:23:42;;;;;;;9.45;6.75;;;20.50;99.90;;;;;;5020446;28;20053;-56
2023/09/02 09:26:10;;;;;;;13.40;9.27;;;20.60;99.90;;;;;;5019883;28;20079;-56
2023/09/02 09:28:56;;;;;;;10.55;6.20;;;20.70;99.90;;;;;;5021893;28;20095;-57
2023/09/02 09:31:23;;;;;;;20.40;12.23;;;20.80;99.90;;;;;;5015069;28;20049;-57
2023/09/02 09:34:09;;;;;;;12.68;5.78;;;21.00;99.90;;;;;;5019585;28;20053;-56
2023/09/02 09:36:35;;;;;;;11.80;5.80;;;20.90;99.90;;;;;;5011805;28;20374;-57
2023/09/02 09:39:03;;;;;;;8.05;5.55;;;21.00;99.90;;;;;;5013224;28;20502;-55
2023/09/02 09:41:30;;;;;;;11.63;5.85;;;21.10;99.90;;;;;;5020230;28;20029;-57
2023/09/02 09:44:12;;;;;;;8.50;5.35;;;21.30;99.90;;;;;;5019166;28;20132;-55
2023/09/02 09:46:44;;;;;;;10.15;6.25;;;21.10;99.90;;;;;;5013659;28;20034;-56
2023/09/02 09:49:22;;;;;;;13.63;6.65;;;21.20;99.90;;;;;;5017111;28;20195;-58
2023/09/02 09:52:06;;;;;;;10.55;5.65;;;21.40;99.90;;;;;;5002633;28;20124;-58
2023/09/02 09:54:39;;;;;;;7.40;5.47;;;21.20;99.90;;;;;;5017597;28;20112;-58
2023/09/02 09:57:10;;;;;;;7.70;4.82;;;21.20;99.90;;;;;;5021045;28;20036;-58
2023/09/02 09:59:36;;;;;;;12.27;7.15;;;21.30;99.90;;;;;;5019848;28;20123;-57
2023/09/02 10:02:05;;;;;;;9.63;5.82;;;21.30;99.90;;;;;;5021281;28;20445;-57
2023/09/02 10:04:32;;;;;;;10.10;5.95;;;21.20;99.90;;;;;;5021145;28;20485;-57
2023/09/02 10:07:02;;;;;;;13.60;6.45;;;21.20;99.90;;;;;;5024682;28;20045;-57
2023/09/02 10:09:58;;;;;;;11.07;5.72;;;21.30;99.90;;;;;;5002687;28;20045;-56
2023/09/02 10:12:24;;;;;;;9.90;5.70;;;21.40;99.90;;;;;;5003208;28;21067;-57
2023/09/02 10:14:50;;;;;;;7.78;5.28;;;21.50;99.90;;;;;;5020049;28;20057;-57
2023/09/02 10:17:17;;;;;;;11.80;6.05;;;21.60;99.90;;;;;;5015354;28;20045;-58
2023/09/02 10:19:44;;;;;;;13.35;6.00;;;21.60;99.90;;;;;;5015436;28;20091;-58
2023/09/02 10:22:18;;;;;;;12.25;6.18;;;21.60;99.90;;;;;;5017705;28;20069;-58
2023/09/02 10:24:50;;;;;;;10.60;5.22;;;21.40;99.90;;;;;;5016528;28;20037;-58
2023/09/02 10:27:19;;;;;;;12.45;6.18;;;21.30;99.90;;;;;;5016958;28;20037;-58
2023/09/02 10:29:52;;;;;;;10.45;6.32;;;21.60;99.90;;;;;;5017436;28;20115;-58
2023/09/02 10:32:20;;;;;;;12.05;7.25;;;21.90;99.90;;;;;;5018977;28;20033;-58
2023/09/02 10:34:57;;;;;;;14.25;7.60;;;21.90;99.90;;;;;;5011551;28;20026;-58
2023/09/02 10:37:28;;;;;;;13.10;5.55;;;21.90;99.90;;;;;;5012003;28;20123;-57
2023/09/02 10:40:05;;;;;;;9.93;6.10;;;21.90;99.90;;;;;;5005098;28;20052;-58
2023/09/02 10:42:31;;;;;;;12.93;5.70;;;21.90;99.90;;;;;;5024072;28;20528;-57
2023/09/02 10:44:57;;;;;;;10.70;6.47;;;22.00;99.90;;;;;;5025504;28;20041;-57
2023/09/02 10:47:22;;;;;;;10.65;5.22;;;21.70;99.90;;;;;;4998782;28;20061;-58
2023/09/02 10:49:49;;;;;;;9.70;5.57;;;21.70;99.90;;;;;;5018041;28;20029;-56
2023/09/02 10:52:15;;;;;;;13.63;5.18;;;21.70;99.90;;;;;;5024594;28;20037;-58
2023/09/02 10:55:01;;;;;;;13.30;5.97;;;21.90;99.90;;;;;;4997799;28;20078;-58
2023/09/02 10:57:27;;;;;;;10.35;5.00;;;21.90;99.90;;;;;;5024061;28;20041;-59
2023/09/02 11:00:12;;;;;;;10.27;4.93;;;22.00;99.90;;;;;;5021917;28;20044;-57
2023/09/02 11:02:39;;;;;;;10.40;5.45;;;22.20;99.90;;;;;;5019817;28;20409;-58
2023/09/02 11:05:05;;;;;;;17.98;6.40;;;22.30;99.90;;;;;;5016170;28;20128;-58
2023/09/02 11:07:33;;;;;;;8.55;5.22;;;22.20;99.90;;;;;;5023572;28;20100;-58
2023/09/02 11:09:59;;;;;;;9.95;5.50;;;22.20;99.90;;;;;;5020582;28;20037;-58
2023/09/02 11:12:25;;;;;;;10.85;4.82;;;22.20;99.90;;;;;;5023312;28;20037;-59
2023/09/02 11:15:09;;;;;;;11.27;5.20;;;22.10;99.90;;;;;;5025022;28;20049;-59
2023/09/02 11:17:35;;;;;;;;;;;22.00;99.90;;;;;;5024582;28;20029;-59
2023/09/02 11:20:03;;;;;;;9.40;4.65;;;21.90;99.90;;;;;;5016818;28;19988;-59
2023/09/02 11:22:54;;;;;;;12.43;5.32;;;21.90;99.90;;;;;;5011867;28;20380;-58
2023/09/02 11:25:28;;;;;;;11.45;6.85;;;22.20;99.90;;;;;;5014472;28;20428;-58
2023/09/02 11:27:55;;;;;;;14.55;7.00;;;22.40;99.90;;;;;;5015227;28;20044;-59
2023/09/02 11:30:25;;;;;;;10.18;6.03;;;22.40;99.90;;;;;;5020506;28;20357;-58
2023/09/02 11:32:51;;;;;;;15.05;7.22;;;22.50;99.90;;;;;;5020701;28;20184;-58
2023/09/02 11:35:27;;;;;;;10.98;5.32;;;22.40;99.90;;;;;;5015461;28;20033;-59
2023/09/02 11:37:53;;;;;;;12.40;6.43;;;22.40;99.90;;;;;;5021055;28;20501;-59
2023/09/02 11:40:20;;;;;;;12.27;6.57;;;22.50;99.90;;;;;;5015331;28;20056;-59
2023/09/02 11:43:00;;;;;;;14.27;5.97;;;22.40;99.90;;;;;;5022491;28;20056;-58
2023/09/02 11:45:32;;;;;;;9.40;5.80;;;22.40;99.90;;;;;;5017028;28;20412;-58
2023/09/02 11:47:58;;;;;;;13.50;5.10;;;22.30;99.90;;;;;;5017482;28;20046;-59
2023/09/02 11:50:24;;;;;;;10.50;5.68;;;22.50;99.90;;;;;;5017965;28;20046;-59
2023/09/02 11:52:55;;;;;;;10.13;6.13;;;22.50;99.90;;;;;;5022596;28;20045;-59
2023/09/02 11:55:21;;;;;;;10.02;4.65;;;22.60;99.90;;;;;;5018566;28;20115;-59
2023/09/02 11:57:48;;;;;;;10.70;5.88;;;22.70;99.90;;;;;;5016967;28;20072;-59
2023/09/02 12:00:21;;;;;;;7.85;4.30;;;22.60;99.90;;;;;;5017098;28;20033;-59
2023/09/02 12:02:47;;;;;;;10.75;4.30;;;22.60;99.90;;;;;;5016661;28;20041;-59
2023/09/02 12:05:14;;;;;;;8.93;4.35;;;22.70;99.90;;;;;;5011912;28;20056;-58
2023/09/02 12:07:42;;;;;;;10.30;4.40;;;23.00;99.90;;;;;;5013568;28;20078;-60
2023/09/02 12:10:12;;;;;;;13.50;4.82;;;23.00;99.90;;;;;;5016609;28;20469;-59
2023/09/02 12:12:48;;;;;;;9.10;4.78;;;23.00;99.90;;;;;;5017201;28;20037;-58
2023/09/02 12:15:16;;;;;;;6.78;4.20;;;22.80;99.90;;;;;;5013519;28;20127;-58
2023/09/02 12:17:42;;;;;;;6.75;3.80;;;22.80;99.90;;;;;;5016285;28;20095;-58
2023/09/02 12:20:16;;;;;;;7.28;4.35;;;22.80;99.90;;;;;;5007946;28;20480;-59
2023/09/02 12:22:43;;;;;;;10.15;4.10;;;22.80;99.90;;;;;;5018868;28;20447;-58
2023/09/02 12:25:19;;;;;;;7.78;3.95;;;22.80;99.90;;;;;;5015594;28;20071;-59
2023/09/02 12:27:45;;;;;;;8.05;3.95;;;22.90;99.90;;;;;;5016468;28;20072;-59
2023/09/02 12:30:24;;;;;;;8.63;3.45;;;22.90;99.90;;;;;;5017001;28;20416;-59
2023/09/02 12:32:50;;;;;;;6.90;3.78;;;22.80;99.90;;;;;;5010379;28;20093;-59
2023/09/02 12:35:16;;;;;;;7.28;3.67;;;23.00;99.90;;;;;;5015576;28;20152;-58
2023/09/02 12:37:42;;;;;;;7.05;3.67;;;23.00;99.90;;;;;;4992605;28;20138;-58